Time;durP1;ratioP1;P1;durP2;ratioP2;P2;SDS_P1;SDS_P2;PMS_P1;PMS_P2;Temp;Humidity;BMP_temperature;BMP_pressure;BME280_temperature;BME280_humidity;BME280_pressure;Samples;Min_cycle;Max_cycle;Signal;HPM_P1;HPM_P2
2022/08/06 00:00:21;;;;;;;17.27;5.65;;;;;;;;;;5013522;28;20026;-59
2022/08/06 00:02:48;;;;;;;16.98;5.40;;;;;;;;;;5014118;28;20034;-59
2022/08/06 00:05:15;;;;;;;23.08;5.85;;;;;;;;;;5013942;28;20062;-51
2022/08/06 00:07:42;;;;;;;19.15;5.47;;;;;;;;;;5011819;28;20072;-56
2022/08/06 00:10:10;;;;;;;17.35;5.82;;;;;;;;;;5013033;28;20025;-58
2022/08/06 00:12:36;;;;;;;16.92;5.10;;;;;;;;;;5012778;28;20511;-55
2022/08/06 00:15:08;;;;;;;16.02;4.68;;;;;;;;;;5012066;28;20085;-61
2022/08/06 00:17:35;;;;;;;16.35;4.72;;;;;;;;;;5010606;28;20037;-58
2022/08/06 00:20:02;;;;;;;18.23;4.97;;;;;;;;;;5012675;28;20025;-57
2022/08/06 00:22:29;;;;;;;14.27;4.65;;;;;;;;;;5009819;28;20520;-52
2022/08/06 00:24:56;;;;;;;17.60;4.75;;;;;;;;;;5013732;28;20121;-57
2022/08/06 00:27:23;;;;;;;23.60;5.68;;;;;;;;;;5013363;28;20038;-53
2022/08/06 00:29:50;;;;;;;16.83;4.93;;;;;;;;;;5011000;28;20025;-55
2022/08/06 00:32:17;;;;;;;26.08;6.10;;;;;;;;;;5011283;28;20030;-56
2022/08/06 00:34:44;;;;;;;18.60;4.80;;;;;;;;;;5005894;28;20061;-55
2022/08/06 00:37:11;;;;;;;24.35;5.05;;;;;;;;;;5009000;28;20050;-61
2022/08/06 00:39:38;;;;;;;23.15;5.10;;;;;;;;;;5012842;28;20032;-52
2022/08/06 00:42:06;;;;;;;22.60;4.80;;;;;;;;;;5011330;28;20428;-49
2022/08/06 00:44:33;;;;;;;18.25;5.00;;;;;;;;;;5013273;28;20099;-49
2022/08/06 00:47:00;;;;;;;23.65;5.28;;;;;;;;;;5013070;28;20045;-51
2022/08/06 00:49:28;;;;;;;25.88;6.28;;;;;;;;;;5011213;28;20018;-53
2022/08/06 00:51:55;;;;;;;22.48;5.25;;;;;;;;;;5014247;28;20030;-54
2022/08/06 00:54:22;;;;;;;21.92;5.30;;;;;;;;;;5012089;28;20030;-56
2022/08/06 00:56:49;;;;;;;24.85;5.93;;;;;;;;;;5009879;28;20103;-50
2022/08/06 00:59:16;;;;;;;21.55;5.97;;;;;;;;;;5008643;28;20036;-56
2022/08/06 01:01:43;;;;;;;21.83;6.18;;;;;;;;;;5011166;28;20071;-57
2022/08/06 01:04:11;;;;;;;21.17;6.28;;;;;;;;;;5011698;28;20116;-49
2022/08/06 01:06:38;;;;;;;16.65;5.15;;;;;;;;;;5012198;28;20064;-56
2022/08/06 01:09:05;;;;;;;22.50;5.88;;;;;;;;;;5013109;28;20534;-55
2022/08/06 01:11:35;;;;;;;18.60;5.70;;;;;;;;;;5011601;28;20046;-50
2022/08/06 01:14:02;;;;;;;19.40;6.10;;;;;;;;;;5009432;28;20452;-58
2022/08/06 01:16:36;;;;;;;29.13;6.60;;;;;;;;;;5010696;28;20030;-52
2022/08/06 01:19:03;;;;;;;26.98;5.32;;;;;;;;;;5009464;28;20550;-55
2022/08/06 01:21:30;;;;;;;25.08;5.93;;;;;;;;;;5010255;28;20034;-55
2022/08/06 01:24:15;;;;;;;28.85;5.85;;;;;;;;;;5010530;28;20056;-58
2022/08/06 01:26:42;;;;;;;22.48;5.65;;;;;;;;;;5010070;28;20017;-56
2022/08/06 01:29:16;;;;;;;21.50;6.07;;;;;;;;;;5009324;28;20026;-57
2022/08/06 01:31:53;;;;;;;23.38;6.32;;;;;;;;;;5011279;28;20033;-59
2022/08/06 01:34:26;;;;;;;24.10;6.65;;;;;;;;;;5012968;28;20431;-55
2022/08/06 01:36:57;;;;;;;19.23;6.65;;;;;;;;;;5010435;28;20531;-54
2022/08/06 01:39:25;;;;;;;18.75;6.60;;;;;;;;;;5010968;28;20030;-53
2022/08/06 01:41:54;;;;;;;21.30;6.65;;;;;;;;;;4994758;28;20026;-54
2022/08/06 01:44:22;;;;;;;19.20;7.07;;;;;;;;;;5011748;28;20771;-51
2022/08/06 01:46:55;;;;;;;16.60;6.50;;;;;;;;;;5012786;28;20379;-56
2022/08/06 01:49:24;;;;;;;20.50;6.80;;;;;;;;;;5012378;28;20073;-52
2022/08/06 01:51:53;;;;;;;21.23;6.78;;;;;;;;;;5011121;28;20030;-54
2022/08/06 01:54:20;;;;;;;19.75;6.80;;;;;;;;;;5011150;28;20033;-53
2022/08/06 01:56:49;;;;;;;19.55;6.32;;;;;;;;;;5011137;28;20033;-57
2022/08/06 01:59:17;;;;;;;23.15;6.60;;;;;;;;;;5010944;28;20123;-59
2022/08/06 02:01:45;;;;;;;25.15;6.70;;;;;;;;;;5010716;28;20033;-57
2022/08/06 02:04:14;;;;;;;18.67;5.80;;;;;;;;;;5012520;28;20033;-56
2022/08/06 02:06:42;;;;;;;22.75;6.53;;;;;;;;;;5011305;28;20045;-54
2022/08/06 02:09:12;;;;;;;22.60;5.82;;;;;;;;;;5011758;28;20068;-53
2022/08/06 02:11:40;;;;;;;16.77;6.22;;;;;;;;;;5012136;28;20042;-58
2022/08/06 02:14:08;;;;;;;16.42;6.22;;;;;;;;;;5011856;28;20030;-55
2022/08/06 02:16:37;;;;;;;14.52;5.03;;;;;;;;;;5012514;28;20032;-52
2022/08/06 02:19:06;;;;;;;19.20;5.88;;;;;;;;;;5012351;28;20072;-57
2022/08/06 02:21:34;;;;;;;24.50;5.22;;;;;;;;;;5010332;28;20053;-53
2022/08/06 02:24:03;;;;;;;20.55;5.25;;;;;;;;;;5009991;28;20045;-57
2022/08/06 02:26:31;;;;;;;23.40;5.82;;;;;;;;;;5008108;28;20036;-55
2022/08/06 02:28:59;;;;;;;24.58;5.43;;;;;;;;;;5006324;28;20037;-58
2022/08/06 02:31:26;;;;;;;27.05;5.40;;;;;;;;;;5008359;28;20030;-53
2022/08/06 02:33:53;;;;;;;23.95;6.03;;;;;;;;;;5011957;28;20453;-58
2022/08/06 02:36:23;;;;;;;26.27;5.55;;;;;;;;;;5015785;28;20045;-57
2022/08/06 02:38:54;;;;;;;12.93;4.55;;;;;;;;;;5012289;28;20033;-59
2022/08/06 02:41:21;;;;;;;21.05;5.57;;;;;;;;;;5012778;28;20033;-52
2022/08/06 02:43:51;;;;;;;18.25;4.93;;;;;;;;;;5011047;28;20112;-58
2022/08/06 02:46:28;;;;;;;24.02;5.85;;;;;;;;;;5011274;28;20030;-54
2022/08/06 02:49:00;;;;;;;24.42;5.85;;;;;;;;;;5008867;28;20025;-56
2022/08/06 02:51:36;;;;;;;20.48;5.05;;;;;;;;;;5011439;28;20037;-55
2022/08/06 02:54:08;;;;;;;27.90;5.45;;;;;;;;;;5010780;28;20760;-53
2022/08/06 02:56:37;;;;;;;20.30;4.80;;;;;;;;;;5011322;28;20476;-52
2022/08/06 02:59:05;;;;;;;20.00;5.18;;;;;;;;;;5010398;28;20455;-54
2022/08/06 03:01:37;;;;;;;26.05;5.47;;;;;;;;;;5009071;28;20116;-52
2022/08/06 03:04:05;;;;;;;21.50;4.85;;;;;;;;;;5011325;28;20026;-55
2022/08/06 03:06:34;;;;;;;27.33;5.68;;;;;;;;;;5015898;28;20026;-56
2022/08/06 03:09:02;;;;;;;38.80;4.72;;;;;;;;;;5015920;28;20100;-54
2022/08/06 03:11:32;;;;;;;37.45;6.13;;;;;;;;;;5016204;28;20373;-55
2022/08/06 03:14:01;;;;;;;24.67;4.78;;;;;;;;;;5015883;28;20061;-52
2022/08/06 03:16:29;;;;;;;39.67;4.88;;;;;;;;;;5016094;28;20022;-54
2022/08/06 03:18:56;;;;;;;31.77;4.80;;;;;;;;;;5015634;28;20053;-54
2022/08/06 03:21:24;;;;;;;28.20;4.68;;;;;;;;;;5015854;28;20029;-54
2022/08/06 03:23:51;;;;;;;29.00;4.78;;;;;;;;;;5015750;28;20483;-55
2022/08/06 03:26:19;;;;;;;29.85;4.60;;;;;;;;;;5015573;28;20443;-54
2022/08/06 03:28:47;;;;;;;31.92;5.20;;;;;;;;;;5015823;28;20026;-53
2022/08/06 03:31:14;;;;;;;31.88;4.68;;;;;;;;;;5014690;28;20040;-53
2022/08/06 03:33:41;;;;;;;34.97;4.43;;;;;;;;;;5012597;28;20187;-54
2022/08/06 03:36:10;;;;;;;30.40;4.68;;;;;;;;;;5015029;28;20078;-53
2022/08/06 03:38:41;;;;;;;28.08;5.03;;;;;;;;;;5015618;28;20039;-57
2022/08/06 03:41:09;;;;;;;37.50;5.10;;;;;;;;;;5015001;28;20076;-55
2022/08/06 03:43:37;;;;;;;25.02;4.68;;;;;;;;;;5014901;28;20076;-54
2022/08/06 03:46:07;;;;;;;25.58;4.63;;;;;;;;;;4974190;28;20087;-52
2022/08/06 03:48:39;;;;;;;22.50;4.25;;;;;;;;;;5014787;28;20030;-50
2022/08/06 03:51:14;;;;;;;24.15;4.53;;;;;;;;;;5014256;28;20062;-52
2022/08/06 03:53:42;;;;;;;28.98;4.13;;;;;;;;;;5015002;28;20040;-54
2022/08/06 03:56:12;;;;;;;23.25;3.50;;;;;;;;;;5014399;28;20476;-54
2022/08/06 03:58:40;;;;;;;22.70;4.32;;;;;;;;;;5012542;28;20022;-56
2022/08/06 04:01:13;;;;;;;19.38;3.42;;;;;;;;;;5014729;28;20030;-56
2022/08/06 04:03:41;;;;;;;27.85;4.72;;;;;;;;;;5012638;28;20057;-53
2022/08/06 04:06:12;;;;;;;14.43;3.42;;;;;;;;;;5013648;28;20118;-55
2022/08/06 04:08:42;;;;;;;25.42;3.60;;;;;;;;;;5007256;28;20034;-57
2022/08/06 04:11:09;;;;;;;17.67;3.38;;;;;;;;;;5013044;28;20045;-53
2022/08/06 04:13:37;;;;;;;16.85;3.92;;;;;;;;;;5013882;28;20026;-58
2022/08/06 04:16:07;;;;;;;14.35;3.50;;;;;;;;;;5010961;28;20030;-53
2022/08/06 04:18:39;;;;;;;24.92;3.75;;;;;;;;;;5006609;28;20037;-57
2022/08/06 04:21:07;;;;;;;19.20;3.65;;;;;;;;;;4992232;28;20483;-54
2022/08/06 04:23:34;;;;;;;18.20;3.35;;;;;;;;;;5012782;28;20018;-58
2022/08/06 04:26:06;;;;;;;20.75;3.45;;;;;;;;;;5012504;28;20034;-60
2022/08/06 04:28:34;;;;;;;15.37;3.33;;;;;;;;;;4965851;28;20030;-56
2022/08/06 04:31:02;;;;;;;14.40;3.42;;;;;;;;;;4995185;28;20030;-58
2022/08/06 04:33:30;;;;;;;7.90;2.83;;;;;;;;;;5005571;28;20030;-55
2022/08/06 04:36:04;;;;;;;17.98;3.78;;;;;;;;;;5004377;28;20061;-52
2022/08/06 04:38:43;;;;;;;17.52;4.25;;;;;;;;;;5004163;28;20054;-57
2022/08/06 04:41:12;;;;;;;14.27;3.97;;;;;;;;;;5010607;28;20029;-56
2022/08/06 04:43:39;;;;;;;12.00;3.28;;;;;;;;;;5015184;28;20032;-58
2022/08/06 04:46:06;;;;;;;11.20;2.75;;;;;;;;;;5014895;28;20029;-55
2022/08/06 04:48:34;;;;;;;14.38;3.15;;;;;;;;;;5012993;28;21011;-58
2022/08/06 04:51:05;;;;;;;9.07;2.75;;;;;;;;;;5012963;28;20121;-59
2022/08/06 04:53:41;;;;;;;16.00;2.80;;;;;;;;;;5013392;28;20030;-53
2022/08/06 04:56:10;;;;;;;11.82;2.58;;;;;;;;;;5013232;28;20384;-55
2022/08/06 04:58:37;;;;;;;14.75;3.03;;;;;;;;;;5012687;28;20037;-54
2022/08/06 05:01:04;;;;;;;11.50;3.03;;;;;;;;;;5013577;28;20033;-59
2022/08/06 05:03:31;;;;;;;10.05;3.08;;;;;;;;;;4995235;28;20030;-54
2022/08/06 05:06:10;;;;;;;11.18;2.55;;;;;;;;;;5013274;28;20029;-53
2022/08/06 05:08:39;;;;;;;16.10;3.30;;;;;;;;;;5013049;28;20115;-53
2022/08/06 05:11:15;;;;;;;9.98;2.75;;;;;;;;;;5012569;28;20053;-53
2022/08/06 05:13:44;;;;;;;8.45;2.38;;;;;;;;;;5013256;28;20400;-56
2022/08/06 05:16:12;;;;;;;9.52;2.30;;;;;;;;;;5010744;28;20060;-57
2022/08/06 05:18:54;;;;;;;10.40;2.90;;;;;;;;;;5013287;28;20034;-51
2022/08/06 05:21:28;;;;;;;7.75;2.45;;;;;;;;;;5011826;28;20739;-51
2022/08/06 05:23:55;;;;;;;9.65;2.50;;;;;;;;;;5011000;28;20128;-56
2022/08/06 05:26:23;;;;;;;11.10;2.58;;;;;;;;;;5013191;28;20037;-55
2022/08/06 05:28:50;;;;;;;8.52;2.50;;;;;;;;;;5012937;28;20030;-56
2022/08/06 05:31:30;;;;;;;8.40;2.50;;;;;;;;;;4979478;28;20030;-55
2022/08/06 05:33:57;;;;;;;7.70;2.00;;;;;;;;;;5010641;28;20579;-51
2022/08/06 05:36:24;;;;;;;10.73;2.72;;;;;;;;;;5012720;28;20059;-57
2022/08/06 05:38:51;;;;;;;11.32;2.42;;;;;;;;;;5012935;28;20125;-52
2022/08/06 05:41:19;;;;;;;9.23;2.50;;;;;;;;;;5012885;28;20026;-50
2022/08/06 05:43:46;;;;;;;8.75;2.00;;;;;;;;;;5012755;28;20601;-56
2022/08/06 05:46:14;;;;;;;10.63;2.83;;;;;;;;;;5012872;28;20495;-53
2022/08/06 05:48:45;;;;;;;10.07;2.38;;;;;;;;;;5012699;28;20037;-53
2022/08/06 05:51:33;;;;;;;8.15;2.13;;;;;;;;;;5012682;28;20034;-54
2022/08/06 05:54:05;;;;;;;8.68;1.98;;;;;;;;;;5012231;28;20113;-51
2022/08/06 05:56:36;;;;;;;7.15;2.20;;;;;;;;;;5012740;28;20038;-54
2022/08/06 05:59:05;;;;;;;7.43;2.17;;;;;;;;;;5012672;28;20034;-56
2022/08/06 06:01:33;;;;;;;10.57;2.20;;;;;;;;;;5007719;28;20477;-57
2022/08/06 06:04:00;;;;;;;6.22;2.10;;;;;;;;;;5012494;28;20042;-53
2022/08/06 06:06:28;;;;;;;9.13;2.17;;;;;;;;;;5012312;28;20034;-54
2022/08/06 06:08:55;;;;;;;6.22;2.22;;;;;;;;;;5012405;28;20025;-49
2022/08/06 06:11:23;;;;;;;8.43;1.48;;;;;;;;;;5012675;28;20552;-54
2022/08/06 06:13:50;;;;;;;6.00;2.03;;;;;;;;;;5009891;28;20026;-56
2022/08/06 06:16:29;;;;;;;8.55;1.48;;;;;;;;;;5012690;28;20033;-55
2022/08/06 06:19:02;;;;;;;7.57;1.88;;;;;;;;;;5010637;28;20029;-50
2022/08/06 06:21:41;;;;;;;5.85;1.58;;;;;;;;;;5012267;28;20038;-51
2022/08/06 06:24:14;;;;;;;10.00;2.10;;;;;;;;;;5012013;28;20439;-51
2022/08/06 06:26:41;;;;;;;7.18;1.80;;;;;;;;;;5012358;28;20026;-57
2022/08/06 06:29:08;;;;;;;5.82;2.05;;;;;;;;;;5012123;28;20376;-50
2022/08/06 06:32:01;;;;;;;6.90;1.75;;;;;;;;;;5012110;28;20042;-58
2022/08/06 06:34:51;;;;;;;5.00;1.73;;;;;;;;;;5008762;28;20038;-55
2022/08/06 06:37:37;;;;;;;5.40;1.60;;;;;;;;;;4965356;28;20125;-55
2022/08/06 06:40:14;;;;;;;7.55;1.90;;;;;;;;;;5010679;28;20117;-55
2022/08/06 06:42:52;;;;;;;6.10;1.70;;;;;;;;;;5010796;28;20036;-54
2022/08/06 06:45:23;;;;;;;5.43;1.80;;;;;;;;;;5010361;28;20042;-58
2022/08/06 06:47:50;;;;;;;7.65;1.73;;;;;;;;;;5011908;28;20472;-55
2022/08/06 06:50:19;;;;;;;5.35;1.65;;;;;;;;;;5011988;28;20439;-55
2022/08/06 06:52:48;;;;;;;4.75;1.60;;;;;;;;;;5012074;28;20030;-52
2022/08/06 06:55:14;;;;;;;8.88;1.73;;;;;;;;;;5011937;28;20032;-53
2022/08/06 06:57:49;;;;;;;2.90;1.42;;;;;;;;;;5012113;28;20471;-56
2022/08/06 07:00:16;;;;;;;6.22;1.88;;;;;;;;;;5009958;28;20060;-55
2022/08/06 07:02:46;;;;;;;7.30;1.13;;;;;;;;;;5011987;28;20077;-55
2022/08/06 07:05:13;;;;;;;4.60;1.13;;;;;;;;;;5009352;28;20065;-57
2022/08/06 07:07:41;;;;;;;4.00;1.23;;;;;;;;;;5011937;28;20033;-55
2022/08/06 07:10:09;;;;;;;4.07;1.17;;;;;;;;;;5011783;28;20100;-49
2022/08/06 07:12:36;;;;;;;3.03;1.30;;;;;;;;;;5011913;28;20105;-57
2022/08/06 07:15:05;;;;;;;2.97;1.25;;;;;;;;;;5011999;28;20109;-56
2022/08/06 07:17:33;;;;;;;3.72;1.23;;;;;;;;;;5009236;28;20026;-56
2022/08/06 07:20:03;;;;;;;6.80;1.30;;;;;;;;;;5011940;28;20388;-54
2022/08/06 07:22:30;;;;;;;4.15;1.30;;;;;;;;;;5011895;28;20021;-53
2022/08/06 07:25:01;;;;;;;3.13;1.40;;;;;;;;;;5011761;28;20092;-54
2022/08/06 07:27:31;;;;;;;3.38;1.13;;;;;;;;;;5011790;28;20026;-53
2022/08/06 07:29:59;;;;;;;3.92;1.20;;;;;;;;;;5011811;28;20087;-57
2022/08/06 07:32:26;;;;;;;3.90;1.05;;;;;;;;;;5011768;28;20034;-53
2022/08/06 07:34:53;;;;;;;2.42;1.33;;;;;;;;;;5009266;28;20037;-55
2022/08/06 07:37:21;;;;;;;4.45;1.40;;;;;;;;;;5011627;28;20056;-56
2022/08/06 07:39:49;;;;;;;4.32;1.23;;;;;;;;;;5011443;28;20057;-57
2022/08/06 07:42:16;;;;;;;3.28;0.90;;;;;;;;;;5011598;28;20025;-53
2022/08/06 07:44:46;;;;;;;3.53;1.08;;;;;;;;;;5011441;28;20033;-55
2022/08/06 07:47:14;;;;;;;3.80;1.25;;;;;;;;;;5009031;28;20511;-57
2022/08/06 07:49:42;;;;;;;3.55;0.95;;;;;;;;;;5011503;28;20041;-53
2022/08/06 07:52:13;;;;;;;4.57;1.00;;;;;;;;;;5012807;28;20392;-57
2022/08/06 07:54:41;;;;;;;3.00;1.00;;;;;;;;;;5014901;28;20065;-57
2022/08/06 07:57:10;;;;;;;4.65;1.10;;;;;;;;;;5015194;28;20028;-53
2022/08/06 07:59:37;;;;;;;2.60;0.93;;;;;;;;;;5014860;28;20025;-50
2022/08/06 08:02:05;;;;;;;2.75;0.98;;;;;;;;;;5014994;28;20549;-49
2022/08/06 08:07:17;;;;;;;3.78;1.08;;;;;;;;;;5015299;28;20412;-57
2022/08/06 08:09:45;;;;;;;3.05;1.00;;;;;;;;;;5015215;28;20439;-57
2022/08/06 08:12:13;;;;;;;2.47;0.98;;;;;;;;;;5015171;28;20507;-57
2022/08/06 08:14:43;;;;;;;2.65;0.88;;;;;;;;;;5015123;28;20026;-56
2022/08/06 08:17:10;;;;;;;3.88;1.05;;;;;;;;;;5014972;28;20515;-57
2022/08/06 08:19:38;;;;;;;4.03;0.95;;;;;;;;;;5015225;28;20638;-58
2022/08/06 08:22:06;;;;;;;2.13;0.82;;;;;;;;;;5014827;28;20065;-57
2022/08/06 08:24:34;;;;;;;1.58;0.80;;;;;;;;;;5014631;28;20041;-57
2022/08/06 08:27:03;;;;;;;3.00;1.08;;;;;;;;;;5015025;28;20021;-56
2022/08/06 08:29:30;;;;;;;1.48;0.68;;;;;;;;;;5014866;28;20041;-57
2022/08/06 08:31:57;;;;;;;2.22;1.00;;;;;;;;;;5014806;28;20030;-57
2022/08/06 08:34:24;;;;;;;2.67;0.90;;;;;;;;;;5014665;28;20045;-56
2022/08/06 08:36:51;;;;;;;1.15;0.60;;;;;;;;;;5014613;28;20081;-57
2022/08/06 08:39:18;;;;;;;1.23;0.88;;;;;;;;;;5014748;28;20547;-58
2022/08/06 08:41:47;;;;;;;2.92;0.95;;;;;;;;;;5014658;28;20109;-58
2022/08/06 08:44:14;;;;;;;2.10;0.82;;;;;;;;;;5014430;28;20038;-57
2022/08/06 08:46:42;;;;;;;4.65;0.80;;;;;;;;;;5014547;28;20037;-57
2022/08/06 08:49:17;;;;;;;2.03;0.82;;;;;;;;;;5014483;28;20116;-57
2022/08/06 08:51:45;;;;;;;1.95;0.80;;;;;;;;;;5014563;28;20026;-58
2022/08/06 08:54:15;;;;;;;1.40;0.70;;;;;;;;;;5014394;28;20034;-56
2022/08/06 08:56:42;;;;;;;2.33;0.88;;;;;;;;;;5014386;28;20108;-56
2022/08/06 08:59:09;;;;;;;2.45;0.90;;;;;;;;;;5014368;28;20061;-57
2022/08/06 09:01:36;;;;;;;1.48;1.02;;;;;;;;;;5014401;28;20029;-56
2022/08/06 09:04:04;;;;;;;1.52;0.88;;;;;;;;;;5013513;28;20037;-57
2022/08/06 09:06:32;;;;;;;2.35;0.70;;;;;;;;;;5014230;28;20435;-55
2022/08/06 09:09:05;;;;;;;1.70;0.80;;;;;;;;;;5014110;28;20034;-57
2022/08/06 09:11:31;;;;;;;;;;;;;;;;;;5014475;28;20480;-57
2022/08/06 09:14:01;;;;;;;2.40;0.65;;;;;;;;;;5014005;28;19909;-58
2022/08/06 09:16:29;;;;;;;1.67;0.60;;;;;;;;;;5013957;28;20526;-57
2022/08/06 09:18:56;;;;;;;2.42;0.98;;;;;;;;;;5013985;28;20037;-57
2022/08/06 09:21:23;;;;;;;1.13;0.68;;;;;;;;;;5014000;28;20018;-57
2022/08/06 09:23:50;;;;;;;1.30;0.52;;;;;;;;;;5013750;28;20038;-56
2022/08/06 09:26:17;;;;;;;1.98;1.00;;;;;;;;;;5013878;28;20091;-57
2022/08/06 09:28:45;;;;;;;1.92;0.93;;;;;;;;;;5013775;28;20026;-57
2022/08/06 09:31:17;;;;;;;2.92;0.80;;;;;;;;;;5013702;28;20164;-57
2022/08/06 09:33:53;;;;;;;2.65;0.88;;;;;;;;;;5013590;28;20034;-57
2022/08/06 09:36:21;;;;;;;2.22;0.60;;;;;;;;;;5013538;28;20033;-57
2022/08/06 09:38:49;;;;;;;2.25;0.93;;;;;;;;;;5013519;28;20033;-57
2022/08/06 09:41:16;;;;;;;4.70;1.13;;;;;;;;;;5013473;28;20030;-57
2022/08/06 09:43:45;;;;;;;1.67;0.57;;;;;;;;;;5013362;28;20026;-58
2022/08/06 09:46:12;;;;;;;1.75;0.65;;;;;;;;;;5013539;28;20088;-57
2022/08/06 09:48:57;;;;;;;2.60;0.60;;;;;;;;;;5013546;28;20096;-56
2022/08/06 09:51:25;;;;;;;2.22;0.90;;;;;;;;;;5013311;28;20038;-58
2022/08/06 09:53:56;;;;;;;2.05;0.63;;;;;;;;;;5013266;28;20125;-55
2022/08/06 09:56:23;;;;;;;1.80;0.68;;;;;;;;;;5013234;28;20044;-57
2022/08/06 09:58:50;;;;;;;1.23;0.75;;;;;;;;;;5013236;28;20030;-57
2022/08/06 10:01:18;;;;;;;1.25;0.80;;;;;;;;;;5013332;28;20113;-57
2022/08/06 10:03:46;;;;;;;3.83;0.88;;;;;;;;;;5013070;28;20026;-56
2022/08/06 10:06:20;;;;;;;2.75;0.60;;;;;;;;;;5013133;28;20112;-58
2022/08/06 10:08:51;;;;;;;1.30;0.77;;;;;;;;;;5012965;28;20084;-58
2022/08/06 10:11:33;;;;;;;2.40;0.73;;;;;;;;;;5013134;28;20091;-57
2022/08/06 10:14:00;;;;;;;2.10;0.80;;;;;;;;;;5012511;28;20503;-57
2022/08/06 10:16:27;;;;;;;1.15;0.50;;;;;;;;;;5012788;28;20373;-55
2022/08/06 10:18:55;;;;;;;3.85;0.73;;;;;;;;;;5013029;28;20026;-57
2022/08/06 10:21:23;;;;;;;0.80;0.55;;;;;;;;;;5012866;28;20496;-55
2022/08/06 10:23:51;;;;;;;1.83;0.50;;;;;;;;;;5012501;28;20048;-57
2022/08/06 10:26:19;;;;;;;2.10;0.80;;;;;;;;;;5012933;28;20033;-56
2022/08/06 10:28:47;;;;;;;1.70;0.60;;;;;;;;;;5012934;28;20496;-57
2022/08/06 10:31:15;;;;;;;3.75;0.90;;;;;;;;;;5012885;28;20056;-58
2022/08/06 10:33:45;;;;;;;0.82;0.60;;;;;;;;;;5012812;28;20091;-57
2022/08/06 10:36:14;;;;;;;1.50;0.60;;;;;;;;;;5012694;28;20034;-56
2022/08/06 10:38:42;;;;;;;2.05;0.70;;;;;;;;;;5012721;28;20438;-57
2022/08/06 10:41:10;;;;;;;3.10;0.60;;;;;;;;;;5012624;28;20097;-57
2022/08/06 10:43:37;;;;;;;4.40;0.82;;;;;;;;;;5012677;28;20026;-55
2022/08/06 10:46:09;;;;;;;1.30;0.68;;;;;;;;;;5012780;28;20041;-57
2022/08/06 10:48:37;;;;;;;1.55;0.60;;;;;;;;;;5012681;28;20028;-57
2022/08/06 10:51:05;;;;;;;1.90;1.00;;;;;;;;;;5012642;28;20026;-57
2022/08/06 10:53:33;;;;;;;1.50;0.70;;;;;;;;;;5012521;28;20040;-57
2022/08/06 10:56:03;;;;;;;1.90;0.70;;;;;;;;;;5012688;28;20484;-58
2022/08/06 10:58:32;;;;;;;2.42;0.70;;;;;;;;;;5012620;28;20025;-57
2022/08/06 11:01:00;;;;;;;1.15;0.70;;;;;;;;;;5012551;28;20026;-54
2022/08/06 11:03:41;;;;;;;1.60;0.55;;;;;;;;;;5012357;28;20068;-57
2022/08/06 11:06:17;;;;;;;1.30;0.60;;;;;;;;;;5012185;28;20034;-57
2022/08/06 11:09:13;;;;;;;1.65;0.93;;;;;;;;;;5012585;28;20052;-56
2022/08/06 11:12:05;;;;;;;1.80;0.55;;;;;;;;;;4942735;28;20047;-56
2022/08/06 11:14:34;;;;;;;1.20;0.88;;;;;;;;;;5012297;28;20575;-57
2022/08/06 11:17:01;;;;;;;1.42;0.55;;;;;;;;;;5012343;28;20101;-56
2022/08/06 11:19:45;;;;;;;1.38;0.70;;;;;;;;;;5012404;28;20033;-57
2022/08/06 11:22:30;;;;;;;1.95;0.85;;;;;;;;;;5012370;28;20492;-57
2022/08/06 11:24:58;;;;;;;1.85;0.57;;;;;;;;;;5012070;28;20109;-58
2022/08/06 11:27:43;;;;;;;1.25;0.57;;;;;;;;;;5015625;28;20060;-58
2022/08/06 11:30:11;;;;;;;0.85;0.40;;;;;;;;;;5016060;28;20033;-57
2022/08/06 11:32:48;;;;;;;1.65;0.77;;;;;;;;;;5015599;28;20514;-57
2022/08/06 11:35:34;;;;;;;1.98;0.60;;;;;;;;;;5015637;28;20060;-56
2022/08/06 11:38:01;;;;;;;0.85;0.50;;;;;;;;;;5015797;28;20045;-58
2022/08/06 11:40:29;;;;;;;1.10;0.60;;;;;;;;;;5015764;28;20038;-57
2022/08/06 11:42:56;;;;;;;1.02;0.40;;;;;;;;;;5015754;28;20101;-57
2022/08/06 11:45:23;;;;;;;0.93;0.43;;;;;;;;;;5015501;28;20030;-57
2022/08/06 11:48:07;;;;;;;1.67;0.50;;;;;;;;;;5014887;28;20099;-54
2022/08/06 11:50:34;;;;;;;2.65;0.68;;;;;;;;;;5011672;28;20061;-51
2022/08/06 11:53:01;;;;;;;1.55;0.57;;;;;;;;;;5014844;28;20404;-56
2022/08/06 11:55:28;;;;;;;1.85;0.68;;;;;;;;;;5015487;28;20083;-57
2022/08/06 11:58:20;;;;;;;2.47;0.52;;;;;;;;;;5015548;28;20423;-57
2022/08/06 12:00:57;;;;;;;0.70;0.40;;;;;;;;;;5013110;28;20033;-48
2022/08/06 12:03:42;;;;;;;3.15;0.50;;;;;;;;;;5011018;28;20030;-52
2022/08/06 12:06:25;;;;;;;2.92;0.50;;;;;;;;;;5006972;28;20093;-54
2022/08/06 12:09:09;;;;;;;2.58;0.52;;;;;;;;;;5005483;28;20089;-56
2022/08/06 12:11:36;;;;;;;1.42;0.40;;;;;;;;;;5000603;28;20022;-50
2022/08/06 12:14:04;;;;;;;1.70;0.50;;;;;;;;;;4998500;28;20032;-57
2022/08/06 12:16:32;;;;;;;1.33;0.52;;;;;;;;;;4983401;28;20021;-52
2022/08/06 12:19:02;;;;;;;1.92;0.65;;;;;;;;;;4999242;28;20061;-58
2022/08/06 12:21:29;;;;;;;2.97;0.60;;;;;;;;;;5001058;28;20081;-52
2022/08/06 12:23:57;;;;;;;0.90;0.50;;;;;;;;;;5009222;28;20030;-49
2022/08/06 12:26:24;;;;;;;2.67;0.95;;;;;;;;;;4988185;28;20467;-56
2022/08/06 12:28:51;;;;;;;4.28;0.90;;;;;;;;;;4991662;28;20165;-54
2022/08/06 12:31:31;;;;;;;3.92;1.10;;;;;;;;;;5011304;28;20030;-59
2022/08/06 12:33:59;;;;;;;5.50;1.10;;;;;;;;;;4993651;28;20040;-55
2022/08/06 12:36:33;;;;;;;7.70;1.10;;;;;;;;;;5009277;28;20037;-60
2022/08/06 12:39:01;;;;;;;6.80;1.20;;;;;;;;;;5006746;28;20040;-50
2022/08/06 12:41:40;;;;;;;12.90;1.20;;;;;;;;;;5007120;28;20030;-53
2022/08/06 12:44:07;;;;;;;4.90;1.17;;;;;;;;;;5011328;28;20042;-55
2022/08/06 12:46:34;;;;;;;12.25;1.30;;;;;;;;;;5010744;28;20030;-56
2022/08/06 12:49:02;;;;;;;12.10;1.27;;;;;;;;;;5013359;28;20095;-58
2022/08/06 12:51:29;;;;;;;8.05;1.17;;;;;;;;;;5013817;28;20387;-54
2022/08/06 12:54:06;;;;;;;9.82;1.40;;;;;;;;;;5013282;28;20550;-54
2022/08/06 12:56:34;;;;;;;9.73;1.85;;;;;;;;;;4995483;28;20022;-59
2022/08/06 12:59:03;;;;;;;8.38;1.80;;;;;;;;;;5012401;28;20033;-56
2022/08/06 13:01:30;;;;;;;9.02;1.92;;;;;;;;;;5013364;28;20018;-53
2022/08/06 13:03:59;;;;;;;16.95;2.05;;;;;;;;;;5009767;28;20551;-57
2022/08/06 13:06:27;;;;;;;7.63;1.80;;;;;;;;;;5012105;28;20120;-57
2022/08/06 13:08:55;;;;;;;7.57;1.73;;;;;;;;;;5010136;28;20033;-54
2022/08/06 13:11:33;;;;;;;16.10;1.80;;;;;;;;;;5013784;28;20022;-53
2022/08/06 13:14:07;;;;;;;13.40;2.17;;;;;;;;;;5011351;28;20108;-49
2022/08/06 13:16:41;;;;;;;19.95;2.03;;;;;;;;;;5008664;28;20022;-56
2022/08/06 13:19:13;;;;;;;16.85;1.98;;;;;;;;;;5014612;28;20022;-58
2022/08/06 13:21:40;;;;;;;11.97;1.60;;;;;;;;;;5009755;28;20119;-59
2022/08/06 13:24:08;;;;;;;10.00;2.00;;;;;;;;;;5000872;28;20805;-60
2022/08/06 13:26:47;;;;;;;18.38;2.00;;;;;;;;;;5004042;28;20022;-55
2022/08/06 13:29:16;;;;;;;9.93;1.83;;;;;;;;;;5005538;28;20040;-54
2022/08/06 13:31:43;;;;;;;25.88;3.03;;;;;;;;;;5003172;28;20062;-57
2022/08/06 13:34:12;;;;;;;20.50;2.33;;;;;;;;;;4996011;28;20037;-50
2022/08/06 13:36:43;;;;;;;20.85;2.38;;;;;;;;;;5010111;28;20053;-52
2022/08/06 13:39:25;;;;;;;14.80;1.67;;;;;;;;;;5004699;28;20077;-56
2022/08/06 13:42:06;;;;;;;15.80;2.08;;;;;;;;;;4993626;28;20393;-54
2022/08/06 13:44:38;;;;;;;9.90;1.75;;;;;;;;;;4998194;28;20141;-54
2022/08/06 13:47:06;;;;;;;16.15;2.13;;;;;;;;;;5010078;28;20499;-60
2022/08/06 13:49:34;;;;;;;14.90;1.70;;;;;;;;;;5011664;28;20025;-60
2022/08/06 13:52:02;;;;;;;12.10;1.60;;;;;;;;;;5011547;28;20028;-57
2022/08/06 13:54:29;;;;;;;17.90;2.22;;;;;;;;;;5012019;28;20022;-56
2022/08/06 13:56:57;;;;;;;23.38;2.80;;;;;;;;;;5012873;28;20084;-60
2022/08/06 13:59:29;;;;;;;34.17;3.25;;;;;;;;;;5012223;28;20041;-60
2022/08/06 14:02:00;;;;;;;20.45;2.95;;;;;;;;;;5012813;28;20108;-57
2022/08/06 14:04:29;;;;;;;33.67;3.07;;;;;;;;;;5007746;28;20037;-56
2022/08/06 14:06:56;;;;;;;25.92;2.72;;;;;;;;;;5012414;28;20088;-55
2022/08/06 14:09:25;;;;;;;25.30;3.17;;;;;;;;;;5012839;28;20068;-59
2022/08/06 14:11:56;;;;;;;25.13;2.85;;;;;;;;;;5012709;28;20240;-58
2022/08/06 14:14:24;;;;;;;22.90;3.03;;;;;;;;;;5012419;28;20084;-55
2022/08/06 14:16:52;;;;;;;22.85;3.13;;;;;;;;;;5012802;28;20385;-55
2022/08/06 14:19:19;;;;;;;17.60;3.10;;;;;;;;;;5012101;28;20056;-60
2022/08/06 14:21:46;;;;;;;41.05;5.18;;;;;;;;;;5012444;28;20091;-56
2022/08/06 14:24:13;;;;;;;37.15;4.38;;;;;;;;;;5012015;28;20710;-53
2022/08/06 14:26:41;;;;;;;28.98;4.57;;;;;;;;;;5011851;28;20029;-57
2022/08/06 14:29:08;;;;;;;35.92;4.50;;;;;;;;;;5011516;28;20033;-56
2022/08/06 14:31:35;;;;;;;39.20;4.88;;;;;;;;;;5012020;28;20507;-56
2022/08/06 14:34:02;;;;;;;39.33;5.32;;;;;;;;;;5011925;28;20550;-55
2022/08/06 14:36:30;;;;;;;34.33;4.22;;;;;;;;;;5011709;28;20038;-60
2022/08/06 14:38:57;;;;;;;35.60;4.78;;;;;;;;;;5011996;28;20038;-59
2022/08/06 14:46:56;;;;;;;25.77;3.63;;;;;;;;;;5006538;28;20063;-55
2022/08/06 14:49:23;;;;;;;23.70;3.83;;;;;;;;;;5012033;28;20022;-60
2022/08/06 14:51:50;;;;;;;23.80;3.10;;;;;;;;;;5011706;28;20026;-54
2022/08/06 14:54:18;;;;;;;13.30;2.40;;;;;;;;;;5011959;28;20384;-54
2022/08/06 14:56:46;;;;;;;16.10;2.40;;;;;;;;;;5011423;28;20026;-58
2022/08/06 14:59:14;;;;;;;17.73;2.88;;;;;;;;;;4998243;28;20037;-58